sensor_id;sensor_type;location;lat;lon;timestamp;temperature;humidity
15834;DHT22;8017;50.812;4.934;2022-09-03T00:03:07;18.70;99.90
15834;DHT22;8017;50.812;4.934;2022-09-03T00:06:14;18.70;99.90
15834;DHT22;8017;50.812;4.934;2022-09-03T00:09:23;18.70;99.90
15834;DHT22;8017;50.812;4.934;2022-09-03T00:12:27;18.80;99.90
15834;DHT22;8017;50.812;4.934;2022-09-03T00:15:31;18.70;99.90
15834;DHT22;8017;50.812;4.934;2022-09-03T00:18:42;18.70;99.90
15834;DHT22;8017;50.812;4.934;2022-09-03T00:21:47;18.80;99.90
15834;DHT22;8017;50.812;4.934;2022-09-03T00:24:51;18.80;99.90
15834;DHT22;8017;50.812;4.934;2022-09-03T00:27:56;18.80;99.90
15834;DHT22;8017;50.812;4.934;2022-09-03T00:31:06;18.80;99.90
15834;DHT22;8017;50.812;4.934;2022-09-03T00:34:18;18.80;99.90
15834;DHT22;8017;50.812;4.934;2022-09-03T00:37:22;18.80;99.90
15834;DHT22;8017;50.812;4.934;2022-09-03T00:40:37;18.70;99.90
15834;DHT22;8017;50.812;4.934;2022-09-03T00:43:59;18.70;99.90
15834;DHT22;8017;50.812;4.934;2022-09-03T00:47:11;18.70;99.90
15834;DHT22;8017;50.812;4.934;2022-09-03T00:50:24;18.70;99.90
15834;DHT22;8017;50.812;4.934;2022-09-03T00:53:37;18.70;99.90
15834;DHT22;8017;50.812;4.934;2022-09-03T00:56:46;18.70;99.90
15834;DHT22;8017;50.812;4.934;2022-09-03T00:59:59;18.70;99.90
15834;DHT22;8017;50.812;4.934;2022-09-03T01:03:05;18.70;99.90
15834;DHT22;8017;50.812;4.934;2022-09-03T01:06:16;18.70;99.90
15834;DHT22;8017;50.812;4.934;2022-09-03T01:09:28;18.70;99.90
15834;DHT22;8017;50.812;4.934;2022-09-03T01:12:38;18.70;99.90
15834;DHT22;8017;50.812;4.934;2022-09-03T01:15:48;18.70;99.90
15834;DHT22;8017;50.812;4.934;2022-09-03T01:19:01;18.70;99.90
15834;DHT22;8017;50.812;4.934;2022-09-03T01:22:24;18.70;99.90
15834;DHT22;8017;50.812;4.934;2022-09-03T01:25:41;18.60;99.90
15834;DHT22;8017;50.812;4.934;2022-09-03T01:28:55;18.60;99.90
15834;DHT22;8017;50.812;4.934;2022-09-03T01:32:04;18.50;99.90
15834;DHT22;8017;50.812;4.934;2022-09-03T01:35:13;18.50;99.90
15834;DHT22;8017;50.812;4.934;2022-09-03T01:38:23;18.50;99.90
15834;DHT22;8017;50.812;4.934;2022-09-03T01:41:38;18.50;99.90
15834;DHT22;8017;50.812;4.934;2022-09-03T01:48:42;18.40;99.90
15834;DHT22;8017;50.812;4.934;2022-09-03T01:51:45;18.40;99.90
15834;DHT22;8017;50.812;4.934;2022-09-03T01:54:54;18.40;99.90
15834;DHT22;8017;50.812;4.934;2022-09-03T01:58:01;18.30;99.90
15834;DHT22;8017;50.812;4.934;2022-09-03T02:01:13;18.40;99.90
15834;DHT22;8017;50.812;4.934;2022-09-03T02:04:18;18.30;99.90
15834;DHT22;8017;50.812;4.934;2022-09-03T02:07:21;18.30;99.90
15834;DHT22;8017;50.812;4.934;2022-09-03T02:10:26;18.30;99.90
15834;DHT22;8017;50.812;4.934;2022-09-03T02:13:33;18.30;99.90
15834;DHT22;8017;50.812;4.934;2022-09-03T02:16:37;18.20;99.90
15834;DHT22;8017;50.812;4.934;2022-09-03T02:19:39;18.30;99.90
15834;DHT22;8017;50.812;4.934;2022-09-03T02:22:41;18.20;99.90
15834;DHT22;8017;50.812;4.934;2022-09-03T02:25:46;18.30;99.90
15834;DHT22;8017;50.812;4.934;2022-09-03T02:28:50;18.20;99.90
15834;DHT22;8017;50.812;4.934;2022-09-03T02:31:53;18.20;99.90
15834;DHT22;8017;50.812;4.934;2022-09-03T02:34:55;18.20;99.90
15834;DHT22;8017;50.812;4.934;2022-09-03T02:38:07;18.30;99.90
15834;DHT22;8017;50.812;4.934;2022-09-03T02:41:09;18.30;99.90
15834;DHT22;8017;50.812;4.934;2022-09-03T02:44:18;18.20;99.90
15834;DHT22;8017;50.812;4.934;2022-09-03T02:47:29;18.20;99.90
15834;DHT22;8017;50.812;4.934;2022-09-03T02:50:31;18.20;99.90
15834;DHT22;8017;50.812;4.934;2022-09-03T02:53:40;18.10;99.90
15834;DHT22;8017;50.812;4.934;2022-09-03T02:56:42;18.00;99.90
15834;DHT22;8017;50.812;4.934;2022-09-03T02:59:48;18.10;99.90
15834;DHT22;8017;50.812;4.934;2022-09-03T03:02:51;18.00;99.90
15834;DHT22;8017;50.812;4.934;2022-09-03T03:05:54;18.00;99.90
15834;DHT22;8017;50.812;4.934;2022-09-03T03:08:57;18.00;99.90
15834;DHT22;8017;50.812;4.934;2022-09-03T03:12:00;18.00;99.90
15834;DHT22;8017;50.812;4.934;2022-09-03T03:15:01;18.00;99.90
15834;DHT22;8017;50.812;4.934;2022-09-03T03:18:05;18.10;99.90
15834;DHT22;8017;50.812;4.934;2022-09-03T03:21:08;18.10;99.90
15834;DHT22;8017;50.812;4.934;2022-09-03T03:24:11;18.10;99.90
15834;DHT22;8017;50.812;4.934;2022-09-03T03:27:13;18.10;99.90
15834;DHT22;8017;50.812;4.934;2022-09-03T03:30:14;18.10;99.90
15834;DHT22;8017;50.812;4.934;2022-09-03T03:33:18;18.10;99.90
15834;DHT22;8017;50.812;4.934;2022-09-03T03:36:21;18.10;99.90
15834;DHT22;8017;50.812;4.934;2022-09-03T03:39:23;18.20;99.90
15834;DHT22;8017;50.812;4.934;2022-09-03T03:42:25;18.20;99.90
15834;DHT22;8017;50.812;4.934;2022-09-03T03:45:27;18.20;99.90
15834;DHT22;8017;50.812;4.934;2022-09-03T03:48:30;18.20;99.90
15834;DHT22;8017;50.812;4.934;2022-09-03T03:51:33;18.20;99.90
15834;DHT22;8017;50.812;4.934;2022-09-03T03:54:35;18.20;99.90
15834;DHT22;8017;50.812;4.934;2022-09-03T03:57:37;18.20;99.90
15834;DHT22;8017;50.812;4.934;2022-09-03T04:00:39;18.30;99.90
15834;DHT22;8017;50.812;4.934;2022-09-03T04:03:42;18.30;99.90
15834;DHT22;8017;50.812;4.934;2022-09-03T04:06:44;18.30;99.90
15834;DHT22;8017;50.812;4.934;2022-09-03T04:09:46;18.40;99.90
15834;DHT22;8017;50.812;4.934;2022-09-03T04:12:48;18.50;99.90
15834;DHT22;8017;50.812;4.934;2022-09-03T04:15:59;18.40;99.90
15834;DHT22;8017;50.812;4.934;2022-09-03T04:19:02;18.20;99.90
15834;DHT22;8017;50.812;4.934;2022-09-03T04:22:05;18.30;99.90
15834;DHT22;8017;50.812;4.934;2022-09-03T04:25:07;18.30;99.90
15834;DHT22;8017;50.812;4.934;2022-09-03T04:28:09;18.30;99.90
15834;DHT22;8017;50.812;4.934;2022-09-03T04:31:13;18.40;99.90
15834;DHT22;8017;50.812;4.934;2022-09-03T04:34:16;18.30;99.90
15834;DHT22;8017;50.812;4.934;2022-09-03T04:37:18;18.40;99.90
15834;DHT22;8017;50.812;4.934;2022-09-03T04:40:20;18.40;99.90
15834;DHT22;8017;50.812;4.934;2022-09-03T04:43:22;18.30;99.90
15834;DHT22;8017;50.812;4.934;2022-09-03T04:46:26;18.30;99.90
15834;DHT22;8017;50.812;4.934;2022-09-03T04:49:34;18.30;99.90
15834;DHT22;8017;50.812;4.934;2022-09-03T04:52:35;18.30;99.90
15834;DHT22;8017;50.812;4.934;2022-09-03T04:55:38;18.30;99.90
15834;DHT22;8017;50.812;4.934;2022-09-03T04:58:39;18.30;99.90
15834;DHT22;8017;50.812;4.934;2022-09-03T05:01:44;18.40;99.90
15834;DHT22;8017;50.812;4.934;2022-09-03T05:04:47;18.50;99.90
15834;DHT22;8017;50.812;4.934;2022-09-03T05:07:50;18.50;99.90
15834;DHT22;8017;50.812;4.934;2022-09-03T05:10:57;18.50;99.90
15834;DHT22;8017;50.812;4.934;2022-09-03T05:14:00;18.40;99.90
15834;DHT22;8017;50.812;4.934;2022-09-03T05:17:02;18.30;99.90
15834;DHT22;8017;50.812;4.934;2022-09-03T05:20:06;18.10;99.90
15834;DHT22;8017;50.812;4.934;2022-09-03T05:23:08;18.00;99.90
15834;DHT22;8017;50.812;4.934;2022-09-03T05:26:13;17.90;99.90
15834;DHT22;8017;50.812;4.934;2022-09-03T05:29:15;17.90;99.90
15834;DHT22;8017;50.812;4.934;2022-09-03T05:32:18;17.90;99.90
15834;DHT22;8017;50.812;4.934;2022-09-03T05:35:22;17.90;99.90
15834;DHT22;8017;50.812;4.934;2022-09-03T05:38:24;17.90;99.90
15834;DHT22;8017;50.812;4.934;2022-09-03T05:41:27;17.90;99.90
15834;DHT22;8017;50.812;4.934;2022-09-03T05:44:29;18.00;99.90
15834;DHT22;8017;50.812;4.934;2022-09-03T05:47:31;18.00;99.90
15834;DHT22;8017;50.812;4.934;2022-09-03T05:50:34;18.10;99.90
15834;DHT22;8017;50.812;4.934;2022-09-03T05:53:38;18.20;99.90
15834;DHT22;8017;50.812;4.934;2022-09-03T05:56:40;18.40;99.90
15834;DHT22;8017;50.812;4.934;2022-09-03T05:59:42;18.40;99.90
15834;DHT22;8017;50.812;4.934;2022-09-03T06:02:49;18.50;99.90
15834;DHT22;8017;50.812;4.934;2022-09-03T06:05:53;18.50;99.90
15834;DHT22;8017;50.812;4.934;2022-09-03T06:08:57;18.40;99.90
15834;DHT22;8017;50.812;4.934;2022-09-03T06:11:59;18.40;99.90
15834;DHT22;8017;50.812;4.934;2022-09-03T06:15:00;18.50;99.90
15834;DHT22;8017;50.812;4.934;2022-09-03T06:18:03;18.50;99.90
15834;DHT22;8017;50.812;4.934;2022-09-03T06:21:06;18.70;99.90
15834;DHT22;8017;50.812;4.934;2022-09-03T06:24:09;18.80;99.90
15834;DHT22;8017;50.812;4.934;2022-09-03T06:27:11;19.00;99.90
15834;DHT22;8017;50.812;4.934;2022-09-03T06:30:13;19.20;99.90
15834;DHT22;8017;50.812;4.934;2022-09-03T06:33:16;19.40;99.90
15834;DHT22;8017;50.812;4.934;2022-09-03T06:36:20;19.60;99.90
15834;DHT22;8017;50.812;4.934;2022-09-03T06:39:22;19.80;99.90
15834;DHT22;8017;50.812;4.934;2022-09-03T06:42:25;19.90;99.90
15834;DHT22;8017;50.812;4.934;2022-09-03T06:45:27;19.90;99.90
15834;DHT22;8017;50.812;4.934;2022-09-03T06:48:30;19.90;99.90
15834;DHT22;8017;50.812;4.934;2022-09-03T06:51:35;19.90;99.90
15834;DHT22;8017;50.812;4.934;2022-09-03T06:54:37;19.90;99.90
15834;DHT22;8017;50.812;4.934;2022-09-03T06:57:40;20.00;99.90
15834;DHT22;8017;50.812;4.934;2022-09-03T07:00:42;20.20;99.90
15834;DHT22;8017;50.812;4.934;2022-09-03T07:03:47;20.20;99.90
15834;DHT22;8017;50.812;4.934;2022-09-03T07:06:54;20.30;99.90
15834;DHT22;8017;50.812;4.934;2022-09-03T07:09:56;20.40;99.90
15834;DHT22;8017;50.812;4.934;2022-09-03T07:12:57;20.50;99.90
15834;DHT22;8017;50.812;4.934;2022-09-03T07:16:00;20.60;99.90
15834;DHT22;8017;50.812;4.934;2022-09-03T07:19:03;20.60;99.90
15834;DHT22;8017;50.812;4.934;2022-09-03T07:22:08;20.70;99.90
15834;DHT22;8017;50.812;4.934;2022-09-03T07:25:10;20.80;99.90
15834;DHT22;8017;50.812;4.934;2022-09-03T07:28:11;21.00;99.90
15834;DHT22;8017;50.812;4.934;2022-09-03T07:31:15;21.00;99.90
15834;DHT22;8017;50.812;4.934;2022-09-03T07:34:20;21.10;99.90
15834;DHT22;8017;50.812;4.934;2022-09-03T07:37:25;21.30;99.90
15834;DHT22;8017;50.812;4.934;2022-09-03T07:40:26;21.50;99.90
15834;DHT22;8017;50.812;4.934;2022-09-03T07:43:33;21.60;99.90
15834;DHT22;8017;50.812;4.934;2022-09-03T07:46:36;21.80;99.90
15834;DHT22;8017;50.812;4.934;2022-09-03T07:49:39;22.00;99.90
15834;DHT22;8017;50.812;4.934;2022-09-03T07:52:42;22.30;99.90
15834;DHT22;8017;50.812;4.934;2022-09-03T07:55:44;22.50;99.90
15834;DHT22;8017;50.812;4.934;2022-09-03T07:58:46;22.70;99.90
15834;DHT22;8017;50.812;4.934;2022-09-03T08:01:48;23.00;99.90
15834;DHT22;8017;50.812;4.934;2022-09-03T08:04:51;23.20;99.90
15834;DHT22;8017;50.812;4.934;2022-09-03T08:07:54;23.40;99.90
15834;DHT22;8017;50.812;4.934;2022-09-03T08:11:03;23.50;99.90
15834;DHT22;8017;50.812;4.934;2022-09-03T08:14:07;23.70;99.90
15834;DHT22;8017;50.812;4.934;2022-09-03T08:17:09;23.70;99.90
15834;DHT22;8017;50.812;4.934;2022-09-03T08:20:12;23.60;99.90
15834;DHT22;8017;50.812;4.934;2022-09-03T08:23:15;24.00;99.90
15834;DHT22;8017;50.812;4.934;2022-09-03T08:26:18;24.40;99.90
15834;DHT22;8017;50.812;4.934;2022-09-03T08:29:21;24.50;99.90
15834;DHT22;8017;50.812;4.934;2022-09-03T08:32:22;24.70;99.90
15834;DHT22;8017;50.812;4.934;2022-09-03T08:35:24;25.00;99.90
15834;DHT22;8017;50.812;4.934;2022-09-03T08:38:28;25.40;99.90
15834;DHT22;8017;50.812;4.934;2022-09-03T08:41:40;25.30;99.90
15834;DHT22;8017;50.812;4.934;2022-09-03T08:44:47;25.30;99.90
15834;DHT22;8017;50.812;4.934;2022-09-03T08:47:58;25.20;99.90
15834;DHT22;8017;50.812;4.934;2022-09-03T08:51:04;25.30;99.90
15834;DHT22;8017;50.812;4.934;2022-09-03T08:54:10;25.40;99.90
15834;DHT22;8017;50.812;4.934;2022-09-03T08:57:15;25.40;99.90
15834;DHT22;8017;50.812;4.934;2022-09-03T09:00:20;25.50;99.90
15834;DHT22;8017;50.812;4.934;2022-09-03T09:03:39;25.40;99.90
15834;DHT22;8017;50.812;4.934;2022-09-03T09:06:47;25.50;99.90
15834;DHT22;8017;50.812;4.934;2022-09-03T09:10:00;25.80;99.90
15834;DHT22;8017;50.812;4.934;2022-09-03T09:13:08;25.90;99.90
15834;DHT22;8017;50.812;4.934;2022-09-03T09:16:21;25.70;99.90
15834;DHT22;8017;50.812;4.934;2022-09-03T09:19:35;25.90;99.90
15834;DHT22;8017;50.812;4.934;2022-09-03T09:22:41;26.10;99.90
15834;DHT22;8017;50.812;4.934;2022-09-03T09:25:47;26.10;99.90
15834;DHT22;8017;50.812;4.934;2022-09-03T09:28:54;26.40;99.90
15834;DHT22;8017;50.812;4.934;2022-09-03T09:31:56;26.40;99.90
15834;DHT22;8017;50.812;4.934;2022-09-03T09:34:58;26.60;99.90
15834;DHT22;8017;50.812;4.934;2022-09-03T09:38:00;26.60;99.90
15834;DHT22;8017;50.812;4.934;2022-09-03T09:41:11;26.50;99.90
15834;DHT22;8017;50.812;4.934;2022-09-03T09:44:19;26.20;99.90
15834;DHT22;8017;50.812;4.934;2022-09-03T09:47:24;26.30;99.90
15834;DHT22;8017;50.812;4.934;2022-09-03T09:50:26;26.30;99.90
15834;DHT22;8017;50.812;4.934;2022-09-03T09:53:28;26.30;99.90
15834;DHT22;8017;50.812;4.934;2022-09-03T09:56:31;26.20;99.90
15834;DHT22;8017;50.812;4.934;2022-09-03T09:59:34;26.30;99.90
15834;DHT22;8017;50.812;4.934;2022-09-03T10:02:38;26.40;99.90
15834;DHT22;8017;50.812;4.934;2022-09-03T10:05:41;26.00;99.90
15834;DHT22;8017;50.812;4.934;2022-09-03T10:08:43;25.70;99.90
15834;DHT22;8017;50.812;4.934;2022-09-03T10:11:49;25.50;99.90
15834;DHT22;8017;50.812;4.934;2022-09-03T10:14:55;25.50;99.90
15834;DHT22;8017;50.812;4.934;2022-09-03T10:18:02;25.50;99.90
15834;DHT22;8017;50.812;4.934;2022-09-03T10:21:11;25.70;99.90
15834;DHT22;8017;50.812;4.934;2022-09-03T10:24:30;25.80;99.90
15834;DHT22;8017;50.812;4.934;2022-09-03T10:27:40;25.50;99.90
15834;DHT22;8017;50.812;4.934;2022-09-03T10:30:53;25.40;99.90
15834;DHT22;8017;50.812;4.934;2022-09-03T10:34:02;25.30;99.90
15834;DHT22;8017;50.812;4.934;2022-09-03T10:37:17;25.30;99.90
15834;DHT22;8017;50.812;4.934;2022-09-03T10:40:26;25.60;99.90
15834;DHT22;8017;50.812;4.934;2022-09-03T10:43:45;25.50;99.90
15834;DHT22;8017;50.812;4.934;2022-09-03T10:46:57;25.60;99.90
15834;DHT22;8017;50.812;4.934;2022-09-03T10:50:11;25.60;99.90
15834;DHT22;8017;50.812;4.934;2022-09-03T10:53:36;25.50;99.90
15834;DHT22;8017;50.812;4.934;2022-09-03T10:56:48;25.50;99.90
15834;DHT22;8017;50.812;4.934;2022-09-03T11:00:01;25.70;99.90
15834;DHT22;8017;50.812;4.934;2022-09-03T11:03:38;25.80;99.90
15834;DHT22;8017;50.812;4.934;2022-09-03T11:06:50;25.50;99.90
15834;DHT22;8017;50.812;4.934;2022-09-03T11:09:56;25.00;99.90
15834;DHT22;8017;50.812;4.934;2022-09-03T11:13:06;25.00;99.90
15834;DHT22;8017;50.812;4.934;2022-09-03T11:16:15;25.00;99.90
15834;DHT22;8017;50.812;4.934;2022-09-03T11:19:25;25.10;99.90
15834;DHT22;8017;50.812;4.934;2022-09-03T11:22:30;25.40;99.90
15834;DHT22;8017;50.812;4.934;2022-09-03T11:25:36;25.80;99.90
15834;DHT22;8017;50.812;4.934;2022-09-03T11:28:46;26.00;99.90
15834;DHT22;8017;50.812;4.934;2022-09-03T11:31:57;26.00;99.90
15834;DHT22;8017;50.812;4.934;2022-09-03T11:35:13;25.80;99.90
15834;DHT22;8017;50.812;4.934;2022-09-03T11:38:20;25.50;99.90
15834;DHT22;8017;50.812;4.934;2022-09-03T11:41:29;25.30;99.90
15834;DHT22;8017;50.812;4.934;2022-09-03T11:44:36;25.40;99.90
15834;DHT22;8017;50.812;4.934;2022-09-03T11:47:41;25.50;99.90
15834;DHT22;8017;50.812;4.934;2022-09-03T11:50:51;25.80;99.90
15834;DHT22;8017;50.812;4.934;2022-09-03T11:53:55;26.10;99.90
15834;DHT22;8017;50.812;4.934;2022-09-03T11:57:10;26.30;99.90
15834;DHT22;8017;50.812;4.934;2022-09-03T12:00:14;26.40;99.90
15834;DHT22;8017;50.812;4.934;2022-09-03T12:03:23;26.30;99.90
15834;DHT22;8017;50.812;4.934;2022-09-03T12:06:48;26.50;99.90
15834;DHT22;8017;50.812;4.934;2022-09-03T12:10:10;27.10;99.90
15834;DHT22;8017;50.812;4.934;2022-09-03T12:13:32;27.40;99.90
15834;DHT22;8017;50.812;4.934;2022-09-03T12:17:08;27.30;99.90
15834;DHT22;8017;50.812;4.934;2022-09-03T12:20:15;26.90;99.90
15834;DHT22;8017;50.812;4.934;2022-09-03T12:23:28;26.60;99.90
15834;DHT22;8017;50.812;4.934;2022-09-03T12:26:38;26.50;99.90
15834;DHT22;8017;50.812;4.934;2022-09-03T12:29:50;26.60;99.90
15834;DHT22;8017;50.812;4.934;2022-09-03T12:33:04;26.80;99.90
15834;DHT22;8017;50.812;4.934;2022-09-03T12:36:08;27.10;99.90
15834;DHT22;8017;50.812;4.934;2022-09-03T12:39:12;27.20;99.90
15834;DHT22;8017;50.812;4.934;2022-09-03T12:42:21;27.20;99.90
15834;DHT22;8017;50.812;4.934;2022-09-03T12:45:25;27.40;99.90
15834;DHT22;8017;50.812;4.934;2022-09-03T12:48:27;27.40;99.90
15834;DHT22;8017;50.812;4.934;2022-09-03T12:51:37;27.40;99.90
15834;DHT22;8017;50.812;4.934;2022-09-03T12:54:45;27.60;99.90
15834;DHT22;8017;50.812;4.934;2022-09-03T12:57:52;27.60;99.90
15834;DHT22;8017;50.812;4.934;2022-09-03T13:00:58;27.80;99.90
15834;DHT22;8017;50.812;4.934;2022-09-03T13:04:08;27.90;99.90
15834;DHT22;8017;50.812;4.934;2022-09-03T13:07:14;28.00;99.90
15834;DHT22;8017;50.812;4.934;2022-09-03T13:10:27;27.90;99.90
15834;DHT22;8017;50.812;4.934;2022-09-03T13:13:32;27.90;99.90
15834;DHT22;8017;50.812;4.934;2022-09-03T13:17:01;28.10;99.90
15834;DHT22;8017;50.812;4.934;2022-09-03T13:20:24;28.10;99.90
15834;DHT22;8017;50.812;4.934;2022-09-03T13:27:07;28.50;99.90
15834;DHT22;8017;50.812;4.934;2022-09-03T13:30:13;28.30;99.90
15834;DHT22;8017;50.812;4.934;2022-09-03T13:33:21;28.20;99.90
15834;DHT22;8017;50.812;4.934;2022-09-03T13:36:27;28.20;99.90
15834;DHT22;8017;50.812;4.934;2022-09-03T13:39:37;28.00;99.90
15834;DHT22;8017;50.812;4.934;2022-09-03T13:42:44;27.80;99.90
15834;DHT22;8017;50.812;4.934;2022-09-03T13:45:52;27.90;99.90
15834;DHT22;8017;50.812;4.934;2022-09-03T13:48:58;27.80;99.90
15834;DHT22;8017;50.812;4.934;2022-09-03T13:52:24;27.60;99.90
15834;DHT22;8017;50.812;4.934;2022-09-03T13:55:34;27.80;99.90
15834;DHT22;8017;50.812;4.934;2022-09-03T13:58:44;27.60;99.90
15834;DHT22;8017;50.812;4.934;2022-09-03T14:02:04;27.40;99.90
15834;DHT22;8017;50.812;4.934;2022-09-03T14:05:11;27.60;99.90
15834;DHT22;8017;50.812;4.934;2022-09-03T14:08:23;27.80;99.90
15834;DHT22;8017;50.812;4.934;2022-09-03T14:11:31;27.80;99.90
15834;DHT22;8017;50.812;4.934;2022-09-03T14:14:43;27.50;99.90
15834;DHT22;8017;50.812;4.934;2022-09-03T14:17:51;27.70;99.90
15834;DHT22;8017;50.812;4.934;2022-09-03T14:21:00;27.80;99.90
15834;DHT22;8017;50.812;4.934;2022-09-03T14:24:06;28.10;99.90
15834;DHT22;8017;50.812;4.934;2022-09-03T14:27:11;28.10;99.90
15834;DHT22;8017;50.812;4.934;2022-09-03T14:30:26;28.20;99.90
15834;DHT22;8017;50.812;4.934;2022-09-03T14:33:38;28.30;99.90
15834;DHT22;8017;50.812;4.934;2022-09-03T14:36:51;28.50;99.90
15834;DHT22;8017;50.812;4.934;2022-09-03T14:40:00;28.80;99.90
15834;DHT22;8017;50.812;4.934;2022-09-03T14:43:25;29.30;99.90
15834;DHT22;8017;50.812;4.934;2022-09-03T14:46:39;29.70;99.90
15834;DHT22;8017;50.812;4.934;2022-09-03T14:49:57;29.60;99.90
15834;DHT22;8017;50.812;4.934;2022-09-03T14:53:20;29.60;99.90
15834;DHT22;8017;50.812;4.934;2022-09-03T14:56:36;29.70;99.90
15834;DHT22;8017;50.812;4.934;2022-09-03T15:00:04;29.80;99.90
15834;DHT22;8017;50.812;4.934;2022-09-03T15:07:15;30.20;99.90
15834;DHT22;8017;50.812;4.934;2022-09-03T15:10:29;29.80;99.90
15834;DHT22;8017;50.812;4.934;2022-09-03T15:13:44;29.20;99.90
15834;DHT22;8017;50.812;4.934;2022-09-03T15:16:52;28.70;99.90
15834;DHT22;8017;50.812;4.934;2022-09-03T15:20:08;28.20;99.90
15834;DHT22;8017;50.812;4.934;2022-09-03T15:23:19;27.90;99.90
15834;DHT22;8017;50.812;4.934;2022-09-03T15:26:46;27.90;99.90
15834;DHT22;8017;50.812;4.934;2022-09-03T15:29:57;28.00;99.90
15834;DHT22;8017;50.812;4.934;2022-09-03T15:33:10;27.80;99.90
15834;DHT22;8017;50.812;4.934;2022-09-03T15:36:18;27.60;99.90
15834;DHT22;8017;50.812;4.934;2022-09-03T15:39:24;27.50;99.90
15834;DHT22;8017;50.812;4.934;2022-09-03T15:42:27;27.50;99.90
15834;DHT22;8017;50.812;4.934;2022-09-03T15:45:37;27.50;99.90
15834;DHT22;8017;50.812;4.934;2022-09-03T15:48:47;27.50;99.90
15834;DHT22;8017;50.812;4.934;2022-09-03T15:52:01;27.50;99.90
15834;DHT22;8017;50.812;4.934;2022-09-03T15:55:09;27.50;99.90
15834;DHT22;8017;50.812;4.934;2022-09-03T15:58:20;27.80;99.90
15834;DHT22;8017;50.812;4.934;2022-09-03T16:01:43;28.00;99.90
15834;DHT22;8017;50.812;4.934;2022-09-03T16:04:59;28.10;99.90
15834;DHT22;8017;50.812;4.934;2022-09-03T16:08:12;27.90;99.90
15834;DHT22;8017;50.812;4.934;2022-09-03T16:11:27;27.50;99.90
15834;DHT22;8017;50.812;4.934;2022-09-03T16:14:37;27.30;99.90
15834;DHT22;8017;50.812;4.934;2022-09-03T16:17:48;27.00;99.90
15834;DHT22;8017;50.812;4.934;2022-09-03T16:20:55;26.90;99.90
15834;DHT22;8017;50.812;4.934;2022-09-03T16:24:04;26.70;99.90
15834;DHT22;8017;50.812;4.934;2022-09-03T16:27:16;26.50;99.90
15834;DHT22;8017;50.812;4.934;2022-09-03T16:30:26;25.90;99.90
15834;DHT22;8017;50.812;4.934;2022-09-03T16:33:36;25.50;99.90
15834;DHT22;8017;50.812;4.934;2022-09-03T16:36:46;25.10;99.90
15834;DHT22;8017;50.812;4.934;2022-09-03T16:39:59;25.00;99.90
15834;DHT22;8017;50.812;4.934;2022-09-03T16:43:09;25.10;99.90
15834;DHT22;8017;50.812;4.934;2022-09-03T16:46:22;25.00;99.90
15834;DHT22;8017;50.812;4.934;2022-09-03T16:49:35;24.70;99.90
15834;DHT22;8017;50.812;4.934;2022-09-03T16:52:44;24.50;99.90
15834;DHT22;8017;50.812;4.934;2022-09-03T16:56:03;24.60;99.90
15834;DHT22;8017;50.812;4.934;2022-09-03T16:59:21;25.00;99.90
15834;DHT22;8017;50.812;4.934;2022-09-03T17:02:50;25.70;99.90
15834;DHT22;8017;50.812;4.934;2022-09-03T17:06:27;26.20;99.90
15834;DHT22;8017;50.812;4.934;2022-09-03T17:09:45;26.60;99.90
15834;DHT22;8017;50.812;4.934;2022-09-03T17:12:58;26.40;99.90
15834;DHT22;8017;50.812;4.934;2022-09-03T17:16:14;26.10;99.90
15834;DHT22;8017;50.812;4.934;2022-09-03T17:19:24;26.30;99.90
15834;DHT22;8017;50.812;4.934;2022-09-03T17:22:40;26.40;99.90
15834;DHT22;8017;50.812;4.934;2022-09-03T17:25:50;26.40;99.90
15834;DHT22;8017;50.812;4.934;2022-09-03T17:29:02;26.00;99.90
15834;DHT22;8017;50.812;4.934;2022-09-03T17:32:19;25.50;99.90
15834;DHT22;8017;50.812;4.934;2022-09-03T17:35:31;25.00;99.90
15834;DHT22;8017;50.812;4.934;2022-09-03T17:42:15;24.40;99.90
15834;DHT22;8017;50.812;4.934;2022-09-03T17:45:28;24.30;99.90
15834;DHT22;8017;50.812;4.934;2022-09-03T17:48:49;24.00;99.90
15834;DHT22;8017;50.812;4.934;2022-09-03T17:51:59;23.90;99.90
15834;DHT22;8017;50.812;4.934;2022-09-03T17:55:12;23.80;99.90
15834;DHT22;8017;50.812;4.934;2022-09-03T17:58:19;23.70;99.90
15834;DHT22;8017;50.812;4.934;2022-09-03T18:01:26;23.70;99.90
15834;DHT22;8017;50.812;4.934;2022-09-03T18:04:44;23.70;99.90
15834;DHT22;8017;50.812;4.934;2022-09-03T18:07:51;23.70;99.90
15834;DHT22;8017;50.812;4.934;2022-09-03T18:11:06;23.70;99.90
15834;DHT22;8017;50.812;4.934;2022-09-03T18:14:16;23.80;99.90
15834;DHT22;8017;50.812;4.934;2022-09-03T18:17:26;23.70;99.90
15834;DHT22;8017;50.812;4.934;2022-09-03T18:20:41;23.60;99.90
15834;DHT22;8017;50.812;4.934;2022-09-03T18:24:10;23.40;99.90
15834;DHT22;8017;50.812;4.934;2022-09-03T18:27:38;23.10;99.90
15834;DHT22;8017;50.812;4.934;2022-09-03T18:30:58;22.90;99.90
15834;DHT22;8017;50.812;4.934;2022-09-03T18:34:20;22.80;99.90
15834;DHT22;8017;50.812;4.934;2022-09-03T18:37:42;22.70;99.90
15834;DHT22;8017;50.812;4.934;2022-09-03T18:41:07;22.60;99.90
15834;DHT22;8017;50.812;4.934;2022-09-03T18:44:42;22.60;99.90
15834;DHT22;8017;50.812;4.934;2022-09-03T18:48:10;22.60;99.90
15834;DHT22;8017;50.812;4.934;2022-09-03T18:51:37;22.80;99.90
15834;DHT22;8017;50.812;4.934;2022-09-03T18:55:06;22.80;99.90
15834;DHT22;8017;50.812;4.934;2022-09-03T18:58:34;22.70;99.90
15834;DHT22;8017;50.812;4.934;2022-09-03T19:01:55;22.60;99.90
15834;DHT22;8017;50.812;4.934;2022-09-03T19:05:18;22.40;99.90
15834;DHT22;8017;50.812;4.934;2022-09-03T19:08:49;22.30;99.90
15834;DHT22;8017;50.812;4.934;2022-09-03T19:12:19;22.10;99.90
15834;DHT22;8017;50.812;4.934;2022-09-03T19:15:48;22.10;99.90
15834;DHT22;8017;50.812;4.934;2022-09-03T19:19:26;22.00;99.90
15834;DHT22;8017;50.812;4.934;2022-09-03T19:22:49;22.00;99.90
15834;DHT22;8017;50.812;4.934;2022-09-03T19:26:17;21.90;99.90
15834;DHT22;8017;50.812;4.934;2022-09-03T19:29:53;21.80;99.90
15834;DHT22;8017;50.812;4.934;2022-09-03T19:33:20;21.80;99.90
15834;DHT22;8017;50.812;4.934;2022-09-03T19:36:51;21.80;99.90
15834;DHT22;8017;50.812;4.934;2022-09-03T19:40:32;21.70;99.90
15834;DHT22;8017;50.812;4.934;2022-09-03T19:44:03;21.80;99.90
15834;DHT22;8017;50.812;4.934;2022-09-03T19:47:32;21.90;99.90
15834;DHT22;8017;50.812;4.934;2022-09-03T19:50:58;21.80;99.90
15834;DHT22;8017;50.812;4.934;2022-09-03T19:54:22;21.90;99.90
15834;DHT22;8017;50.812;4.934;2022-09-03T19:57:46;21.70;99.90
15834;DHT22;8017;50.812;4.934;2022-09-03T20:01:09;21.60;99.90
15834;DHT22;8017;50.812;4.934;2022-09-03T20:04:31;21.60;99.90
15834;DHT22;8017;50.812;4.934;2022-09-03T20:07:53;21.70;99.90
15834;DHT22;8017;50.812;4.934;2022-09-03T20:11:17;21.70;99.90
15834;DHT22;8017;50.812;4.934;2022-09-03T20:14:20;21.60;99.90
15834;DHT22;8017;50.812;4.934;2022-09-03T20:17:35;21.50;99.90
15834;DHT22;8017;50.812;4.934;2022-09-03T20:20:43;21.50;99.90
15834;DHT22;8017;50.812;4.934;2022-09-03T20:23:52;21.50;99.90
15834;DHT22;8017;50.812;4.934;2022-09-03T20:27:06;21.60;99.90
15834;DHT22;8017;50.812;4.934;2022-09-03T20:30:14;21.60;99.90
15834;DHT22;8017;50.812;4.934;2022-09-03T20:33:31;21.50;99.90